This is the latest recevied weather packets stored in our database for station/object VY2CRA-4. If no packets are shown the sender has not sent any weather packets the latest 10 day(s).
| Time | Temp. | Humidity | Pressure | Rain* | Wind** | Luminosity | Snow |
|---|---|---|---|---|---|---|---|
| 1788133523 | 25.56° C | 30% | 1006.8 hPa | 0 mm | - | - | - |
| 1788131121 | 26.67° C | 27% | 1006.8 hPa | 0 mm | - | - | - |
| 1788129920 | 27.22° C | 26% | 1006.9 hPa | 0 mm | - | - | - |
| 1788127518 | 28.33° C | 25% | 1007.3 hPa | 0 mm | - | - | - |
| 1788126317 | 28.33° C | 24% | 1007.2 hPa | 0 mm | - | - | - |
| 1788125117 | 28.33° C | 24% | 1007.4 hPa | 0 mm | - | - | - |
| 1788123915 | 28.33° C | 25% | 1007.3 hPa | 0 mm | - | - | - |
| 1788122714 | 28.33° C | 24% | 1007.6 hPa | 0 mm | - | - | - |
| 1788119111 | 29.44° C | 18% | 1007.9 hPa | 0 mm | - | - | - |
| 1788116710 | 30° C | 17% | 1007.9 hPa | 0 mm | - | - | - |
| 1788114308 | 30° C | 16% | 1007.9 hPa | 0 mm | - | - | - |
| 1788113107 | 30° C | 17% | 1008.2 hPa | 0 mm | - | - | - |
| 1788111906 | 30° C | 14% | 1008.4 hPa | 0 mm | - | - | - |
| 1788110705 | 30° C | 15% | 1008.6 hPa | 0 mm | - | - | - |
| 1788109504 | 30.56° C | 13% | 1008.7 hPa | 0 mm | - | - | - |
| 1788107102 | 31.11° C | 13% | 1009.3 hPa | 0 mm | - | - | - |
| 1788105901 | 31.11° C | 12% | 1009.5 hPa | 0 mm | - | - | - |
| 1788104700 | 31.11° C | 11% | 1009.5 hPa | 0 mm | - | - | - |
| 1788103499 | 32.22° C | 10% | 1009.9 hPa | 0 mm | - | - | - |
| 1788102299 | 32.22° C | 9% | 1010.1 hPa | 0 mm | - | - | - |
| 1788101097 | 33.33° C | 6% | 1010.3 hPa | 0 mm | - | - | - |
| 1788099898 | 33.89° C | 7% | 1010.7 hPa | 0 mm | - | - | - |
| 1788098696 | 33.89° C | 8% | 1011.1 hPa | 0 mm | - | - | - |
| 1788096293 | 32.22° C | 16% | 1011.1 hPa | 0 mm | - | - | - |
| 1788095093 | 31.11° C | 20% | 1011.4 hPa | 0 mm | - | - | - |
* Rain since midnight (hover to see other rain measurements)
** Current wind speed in m/s (hover to see current wind gust speed)